Time;durP1;ratioP1;P1;durP2;ratioP2;P2;SDS_P1;SDS_P2;PMS_P1;PMS_P2;Temp;Humidity;BMP_temperature;BMP_pressure;BME280_temperature;BME280_humidity;BME280_pressure;Samples;Min_cycle;Max_cycle;Signal;HPM_P1;HPM_P2
2022/05/18 00:02:23;;;;;;;2.38;1.83;;;20.40;31.00;;;;;;5033681;28;20036;-71
2022/05/18 00:04:48;;;;;;;3.28;2.10;;;20.40;31.10;;;;;;5033481;28;20033;-71
2022/05/18 00:07:14;;;;;;;1.95;1.80;;;20.40;31.70;;;;;;5033191;28;20030;-71
2022/05/18 00:09:40;;;;;;;2.55;1.80;;;20.40;31.10;;;;;;5033570;28;20104;-71
2022/05/18 00:12:06;;;;;;;1.88;1.67;;;20.40;31.10;;;;;;5033398;28;20026;-71
2022/05/18 00:14:32;;;;;;;2.33;1.85;;;20.30;31.20;;;;;;5033384;28;20029;-71
2022/05/18 00:17:00;;;;;;;4.60;2.10;;;20.30;31.20;;;;;;5033281;28;20071;-71
2022/05/18 00:19:26;;;;;;;2.38;1.88;;;20.30;31.30;;;;;;5032854;28;20030;-71
2022/05/18 00:21:51;;;;;;;3.03;1.88;;;20.30;31.40;;;;;;5033163;28;20056;-71
2022/05/18 00:24:18;;;;;;;2.05;1.38;;;20.30;31.30;;;;;;5033234;28;20042;-71
2022/05/18 00:26:44;;;;;;;1.88;1.70;;;20.30;31.40;;;;;;5031672;28;20075;-72
2022/05/18 00:29:09;;;;;;;2.85;1.90;;;20.20;31.50;;;;;;5033275;28;20509;-71
2022/05/18 00:31:35;;;;;;;2.30;1.73;;;20.20;31.50;;;;;;5033379;28;20029;-71
2022/05/18 00:34:01;;;;;;;2.00;1.58;;;20.20;31.60;;;;;;5033184;28;20079;-71
2022/05/18 00:36:26;;;;;;;1.92;1.40;;;20.20;31.60;;;;;;5032924;28;20026;-72
2022/05/18 00:38:52;;;;;;;2.22;1.65;;;20.20;31.60;;;;;;5033152;28;20030;-71
2022/05/18 00:41:19;;;;;;;2.08;1.58;;;20.20;31.70;;;;;;5032988;28;20486;-72
2022/05/18 00:43:48;;;;;;;1.70;1.60;;;20.20;31.70;;;;;;5032992;28;20099;-71
2022/05/18 00:46:15;;;;;;;2.13;1.55;;;20.20;31.70;;;;;;5033016;28;20056;-71
2022/05/18 00:48:42;;;;;;;1.50;1.40;;;20.10;31.70;;;;;;5033070;28;20094;-72
2022/05/18 00:51:27;;;;;;;1.83;1.50;;;20.10;31.80;;;;;;5030957;28;20116;-73
2022/05/18 00:54:05;;;;;;;1.90;1.50;;;20.10;31.90;;;;;;5032563;28;20030;-72
2022/05/18 00:56:45;;;;;;;1.65;1.38;;;20.00;31.90;;;;;;5033639;28;20040;-71
2022/05/18 00:59:18;;;;;;;1.40;1.30;;;20.00;32.00;;;;;;5033117;28;20032;-72
2022/05/18 01:01:44;;;;;;;2.38;1.52;;;20.00;32.00;;;;;;5034310;28;20026;-70
2022/05/18 01:04:13;;;;;;;2.28;1.52;;;19.90;32.00;;;;;;5036436;28;20053;-72
2022/05/18 01:06:39;;;;;;;2.95;1.50;;;19.90;32.00;;;;;;5036220;28;20034;-71
2022/05/18 01:09:06;;;;;;;2.72;1.52;;;19.90;32.10;;;;;;5036410;28;20036;-71
2022/05/18 01:11:35;;;;;;;1.67;1.58;;;19.90;32.10;;;;;;5036357;28;20057;-71
2022/05/18 01:14:03;;;;;;;2.10;1.27;;;19.80;32.10;;;;;;5036318;28;20039;-71
2022/05/18 01:16:29;;;;;;;2.22;1.75;;;19.80;32.20;;;;;;5036361;28;20033;-71
2022/05/18 01:18:56;;;;;;;1.40;1.30;;;19.80;32.30;;;;;;5036244;28;20163;-71
2022/05/18 01:21:29;;;;;;;2.67;1.38;;;19.70;32.30;;;;;;5036259;28;20030;-71
2022/05/18 01:24:10;;;;;;;2.40;1.60;;;19.80;32.30;;;;;;5035430;28;20122;-71
2022/05/18 01:26:40;;;;;;;1.30;1.20;;;19.70;32.40;;;;;;5034888;28;20116;-70
2022/05/18 01:29:07;;;;;;;1.40;1.30;;;19.80;32.40;;;;;;5036505;28;20038;-72
2022/05/18 01:31:43;;;;;;;1.50;1.30;;;19.70;32.40;;;;;;5034749;28;20021;-71
2022/05/18 01:34:09;;;;;;;1.42;1.20;;;19.70;32.60;;;;;;5036223;28;20103;-71
2022/05/18 01:36:35;;;;;;;2.17;1.33;;;19.70;32.50;;;;;;5035992;28;20022;-71
2022/05/18 01:39:01;;;;;;;1.35;1.25;;;19.70;32.60;;;;;;5036238;28;20060;-71
2022/05/18 01:41:30;;;;;;;1.20;1.10;;;19.70;32.70;;;;;;5035897;28;20052;-71
2022/05/18 01:43:59;;;;;;;1.83;1.23;;;19.70;32.70;;;;;;5034313;28;20168;-70
2022/05/18 01:46:29;;;;;;;1.20;1.10;;;19.70;32.80;;;;;;5034413;28;20510;-70
2022/05/18 01:48:55;;;;;;;1.45;1.20;;;19.70;32.80;;;;;;5035639;28;20112;-71
2022/05/18 01:51:43;;;;;;;1.30;1.20;;;19.70;32.90;;;;;;5035780;28;20041;-71
2022/05/18 01:54:09;;;;;;;1.80;1.00;;;19.70;33.20;;;;;;5035551;28;20030;-71
2022/05/18 01:56:35;;;;;;;1.35;1.10;;;19.70;32.90;;;;;;5035905;28;20387;-71
2022/05/18 01:59:01;;;;;;;2.05;1.10;;;19.70;33.00;;;;;;5035707;28;20029;-72
2022/05/18 02:01:27;;;;;;;0.90;0.90;;;19.60;33.00;;;;;;5035733;28;20028;-71
2022/05/18 02:03:53;;;;;;;2.15;1.27;;;19.60;33.00;;;;;;5035522;28;20032;-72
2022/05/18 02:06:19;;;;;;;0.80;0.80;;;19.60;33.10;;;;;;5035324;28;20115;-72
2022/05/18 02:08:45;;;;;;;0.90;0.90;;;19.60;33.20;;;;;;5035229;28;20061;-71
2022/05/18 02:11:13;;;;;;;1.20;1.10;;;19.60;33.20;;;;;;5034024;28;20057;-71
2022/05/18 02:13:39;;;;;;;2.17;1.15;;;19.60;33.20;;;;;;5035125;28;20452;-71
2022/05/18 02:16:05;;;;;;;0.90;0.90;;;19.60;33.30;;;;;;5035146;28;20030;-72
2022/05/18 02:18:31;;;;;;;0.93;0.93;;;19.60;33.40;;;;;;5034992;28;20021;-71
2022/05/18 02:20:56;;;;;;;2.95;1.00;;;19.60;33.40;;;;;;5034981;28;20026;-71
2022/05/18 02:23:23;;;;;;;1.33;0.80;;;19.50;33.30;;;;;;5033616;28;20117;-72
2022/05/18 02:25:48;;;;;;;1.23;1.00;;;19.60;33.40;;;;;;5035340;28;20158;-72
2022/05/18 02:28:14;;;;;;;1.40;0.82;;;19.60;33.40;;;;;;5034853;28;20057;-72
2022/05/18 02:30:40;;;;;;;1.40;1.10;;;19.60;33.50;;;;;;5034502;28;20530;-70
2022/05/18 02:33:05;;;;;;;1.30;1.00;;;19.50;33.50;;;;;;5034884;28;20053;-70
2022/05/18 02:35:31;;;;;;;0.95;0.95;;;19.50;33.60;;;;;;5033461;28;20029;-71
2022/05/18 02:37:57;;;;;;;0.95;0.95;;;19.50;33.70;;;;;;5034837;28;20025;-71
2022/05/18 02:40:23;;;;;;;0.80;0.80;;;19.50;33.70;;;;;;5034523;28;20107;-71
2022/05/18 02:42:48;;;;;;;1.15;1.00;;;19.40;33.70;;;;;;5034703;28;20361;-71
2022/05/18 02:45:14;;;;;;;1.63;1.02;;;19.30;33.80;;;;;;5034634;28;20076;-71
2022/05/18 02:47:40;;;;;;;0.80;0.80;;;19.40;34.00;;;;;;5034428;28;20471;-71
2022/05/18 02:50:07;;;;;;;1.00;0.95;;;19.30;33.90;;;;;;5034575;28;20022;-72
2022/05/18 02:52:34;;;;;;;1.70;1.10;;;19.30;34.00;;;;;;5034169;28;20029;-71
2022/05/18 02:57:45;;;;;;;2.08;1.00;;;19.20;34.20;;;;;;5034645;28;20083;-72
2022/05/18 03:00:13;;;;;;;0.85;0.85;;;19.20;34.30;;;;;;5034179;28;20521;-71
2022/05/18 03:02:38;;;;;;;0.93;0.90;;;19.20;34.30;;;;;;5033887;28;20108;-71
2022/05/18 03:05:04;;;;;;;1.23;0.80;;;19.20;34.30;;;;;;5032796;28;20478;-72
2022/05/18 03:07:30;;;;;;;1.23;0.90;;;19.30;34.50;;;;;;5034235;28;20112;-71
2022/05/18 03:09:56;;;;;;;0.90;0.90;;;19.20;34.40;;;;;;5034081;28;20108;-71
2022/05/18 03:12:21;;;;;;;0.63;0.63;;;19.20;34.50;;;;;;5033276;28;20434;-71
2022/05/18 03:14:47;;;;;;;0.88;0.88;;;19.20;34.60;;;;;;5034115;28;20065;-71
2022/05/18 03:17:13;;;;;;;0.80;0.80;;;19.20;34.60;;;;;;5034212;28;20083;-71
2022/05/18 03:19:39;;;;;;;0.73;0.73;;;19.30;34.70;;;;;;5033754;28;20029;-72
2022/05/18 03:24:49;;;;;;;1.67;0.77;;;19.30;34.70;;;;;;5032930;28;20080;-71
2022/05/18 03:27:15;;;;;;;0.85;0.85;;;19.30;34.80;;;;;;5033700;28;20041;-71
2022/05/18 03:29:41;;;;;;;1.80;0.90;;;19.40;34.90;;;;;;5033957;28;20044;-73
2022/05/18 03:32:07;;;;;;;1.52;0.80;;;19.40;34.90;;;;;;5033571;28;20075;-72
2022/05/18 03:34:36;;;;;;;2.13;1.00;;;19.40;35.00;;;;;;5032631;28;20036;-72
2022/05/18 03:37:02;;;;;;;0.80;0.80;;;19.30;35.00;;;;;;5034215;28;20372;-71
2022/05/18 03:39:28;;;;;;;1.10;1.10;;;19.30;35.10;;;;;;5033712;28;20169;-71
2022/05/18 03:41:53;;;;;;;0.70;0.70;;;19.30;35.10;;;;;;5033683;28;20083;-70
2022/05/18 03:44:20;;;;;;;1.10;1.00;;;19.20;35.40;;;;;;5033832;28;20037;-70
2022/05/18 03:46:46;;;;;;;1.15;0.85;;;19.20;35.30;;;;;;5033704;28;20045;-72
2022/05/18 03:49:11;;;;;;;0.73;0.73;;;19.10;35.40;;;;;;5033658;28;20039;-71
2022/05/18 03:51:37;;;;;;;0.70;0.70;;;19.10;35.60;;;;;;5033611;28;20025;-72
2022/05/18 03:54:05;;;;;;;0.80;0.80;;;19.10;35.70;;;;;;5033532;28;20083;-71
2022/05/18 03:56:30;;;;;;;1.33;0.68;;;19.10;35.60;;;;;;5033511;28;20361;-71
2022/05/18 03:58:56;;;;;;;0.80;0.80;;;19.10;35.60;;;;;;5033451;28;20036;-72
2022/05/18 04:01:22;;;;;;;0.80;0.80;;;19.10;35.70;;;;;;5033420;28;20503;-72
2022/05/18 04:03:48;;;;;;;0.70;0.70;;;19.10;35.70;;;;;;5034110;28;20376;-72
2022/05/18 04:06:14;;;;;;;0.70;0.70;;;19.10;35.80;;;;;;5033351;28;20029;-72
2022/05/18 04:08:40;;;;;;;0.57;0.57;;;19.10;35.80;;;;;;5033409;28;20029;-71
2022/05/18 04:11:07;;;;;;;0.70;0.70;;;19.10;36.00;;;;;;5033112;28;20036;-71
2022/05/18 04:13:33;;;;;;;1.08;0.88;;;19.10;36.20;;;;;;5033328;28;20430;-72
2022/05/18 04:15:59;;;;;;;0.80;0.80;;;19.00;36.10;;;;;;5032994;28;20523;-72
2022/05/18 04:18:25;;;;;;;0.75;0.75;;;19.10;36.20;;;;;;5033436;28;20049;-71
2022/05/18 04:20:53;;;;;;;0.75;0.75;;;19.10;36.40;;;;;;5033449;28;20052;-71
2022/05/18 04:23:20;;;;;;;0.70;0.70;;;19.00;36.30;;;;;;5033309;28;20045;-71
2022/05/18 04:25:46;;;;;;;0.80;0.80;;;19.00;36.50;;;;;;5032984;28;20081;-71
2022/05/18 04:28:14;;;;;;;0.73;0.73;;;19.00;36.50;;;;;;5033147;28;20501;-72
2022/05/18 04:30:45;;;;;;;0.60;0.60;;;19.00;36.60;;;;;;5031547;28;20488;-71
2022/05/18 04:33:13;;;;;;;0.68;0.68;;;19.10;36.60;;;;;;5031371;28;20383;-72
2022/05/18 04:35:40;;;;;;;0.60;0.60;;;19.10;36.60;;;;;;5020613;28;20029;-71
2022/05/18 04:38:05;;;;;;;0.65;0.65;;;19.20;36.70;;;;;;5016943;28;20365;-72
2022/05/18 04:40:31;;;;;;;0.68;0.68;;;19.20;36.60;;;;;;5020840;28;20029;-71
2022/05/18 04:42:57;;;;;;;0.80;0.80;;;19.30;36.70;;;;;;5036611;28;20057;-72
2022/05/18 04:45:23;;;;;;;1.20;0.80;;;19.30;36.60;;;;;;5029605;28;20044;-71
2022/05/18 04:47:49;;;;;;;0.68;0.68;;;19.40;36.60;;;;;;5036734;28;20022;-71
2022/05/18 04:50:15;;;;;;;1.73;0.75;;;19.40;36.70;;;;;;5034604;28;20064;-72
2022/05/18 04:52:41;;;;;;;0.85;0.70;;;19.40;36.60;;;;;;5035542;28;20036;-71
2022/05/18 04:55:07;;;;;;;0.82;0.80;;;19.40;36.70;;;;;;5029315;28;20034;-71
2022/05/18 04:57:33;;;;;;;0.73;0.70;;;19.40;36.80;;;;;;5036369;28;20387;-72
2022/05/18 04:59:58;;;;;;;1.40;0.90;;;19.40;36.80;;;;;;5029958;28;20028;-72
2022/05/18 05:02:24;;;;;;;0.65;0.65;;;19.50;36.70;;;;;;5036282;28;20365;-72
2022/05/18 05:04:50;;;;;;;0.63;0.63;;;19.50;36.70;;;;;;5032210;28;20029;-72
2022/05/18 05:07:17;;;;;;;0.68;0.68;;;19.60;36.60;;;;;;5036248;28;20033;-72
2022/05/18 05:09:43;;;;;;;1.50;0.88;;;19.60;36.70;;;;;;5035920;28;20027;-72
2022/05/18 05:12:09;;;;;;;0.80;0.80;;;19.60;36.60;;;;;;5029687;28;20072;-74
2022/05/18 05:14:39;;;;;;;0.82;0.82;;;19.60;36.70;;;;;;5023351;28;20053;-72
2022/05/18 05:17:06;;;;;;;1.10;0.90;;;19.60;36.70;;;;;;5015028;28;20054;-72
2022/05/18 05:19:34;;;;;;;0.70;0.70;;;19.60;36.60;;;;;;5028817;28;20101;-71
2022/05/18 05:22:00;;;;;;;0.70;0.70;;;19.70;36.70;;;;;;5034550;28;20387;-73
2022/05/18 05:24:26;;;;;;;0.88;0.82;;;19.80;36.60;;;;;;5033933;28;20050;-72
2022/05/18 05:26:51;;;;;;;1.25;1.13;;;19.90;36.60;;;;;;5034761;28;20497;-70
2022/05/18 05:29:17;;;;;;;1.25;1.08;;;19.90;36.60;;;;;;5035500;28;20022;-72
2022/05/18 05:31:43;;;;;;;0.93;0.93;;;19.90;36.50;;;;;;5036016;28;20033;-68
2022/05/18 05:34:09;;;;;;;0.80;0.80;;;19.80;36.40;;;;;;5026579;28;20037;-72
2022/05/18 05:36:36;;;;;;;0.90;0.90;;;19.70;36.40;;;;;;5027799;28;20037;-71
2022/05/18 05:39:02;;;;;;;1.33;1.23;;;19.60;36.40;;;;;;5014552;28;20036;-71
2022/05/18 05:41:28;;;;;;;2.40;0.85;;;19.60;36.50;;;;;;5015027;28;20396;-72
2022/05/18 05:43:55;;;;;;;1.15;1.00;;;19.40;36.60;;;;;;5015441;28;20026;-70
2022/05/18 05:46:21;;;;;;;0.98;0.98;;;19.30;36.80;;;;;;5013694;28;20447;-73
2022/05/18 05:48:47;;;;;;;0.85;0.70;;;19.20;36.90;;;;;;5015279;28;20065;-71
2022/05/18 05:51:15;;;;;;;0.82;0.70;;;19.10;37.00;;;;;;5015308;28;20030;-71
2022/05/18 05:53:42;;;;;;;1.02;0.90;;;19.00;37.00;;;;;;5015656;28;20025;-72
2022/05/18 05:56:09;;;;;;;0.70;0.70;;;18.80;37.10;;;;;;5015600;28;20036;-71
2022/05/18 05:58:36;;;;;;;0.70;0.70;;;18.80;37.30;;;;;;5015810;28;20030;-71
2022/05/18 06:01:07;;;;;;;2.70;1.00;;;18.60;37.30;;;;;;5015080;28;20420;-71
2022/05/18 06:03:34;;;;;;;0.93;0.90;;;18.60;37.50;;;;;;5016671;28;20029;-70
2022/05/18 06:06:02;;;;;;;0.98;0.98;;;18.50;38.20;;;;;;5015424;28;20030;-72
2022/05/18 06:08:28;;;;;;;1.00;1.00;;;18.50;37.80;;;;;;5015622;28;20065;-73
2022/05/18 06:10:55;;;;;;;0.93;0.93;;;18.50;37.80;;;;;;5015589;28;20041;-72
2022/05/18 06:13:21;;;;;;;2.90;1.10;;;18.60;38.00;;;;;;5014276;28;20380;-71
2022/05/18 06:15:47;;;;;;;0.80;0.80;;;18.60;38.30;;;;;;5014497;28;20120;-72
2022/05/18 06:18:13;;;;;;;1.65;1.20;;;18.70;38.20;;;;;;5014189;28;20464;-72
2022/05/18 06:20:39;;;;;;;1.10;1.00;;;18.80;38.30;;;;;;5015241;28;20040;-71
2022/05/18 06:23:09;;;;;;;1.20;0.90;;;18.90;38.30;;;;;;5015277;28;20030;-72
2022/05/18 06:25:36;;;;;;;0.82;0.80;;;19.00;38.30;;;;;;5015751;28;20061;-72
2022/05/18 06:28:02;;;;;;;1.10;0.85;;;19.00;38.20;;;;;;5015071;28;20049;-71
2022/05/18 06:30:28;;;;;;;1.27;1.00;;;19.10;38.20;;;;;;5013705;28;20180;-72
2022/05/18 06:32:57;;;;;;;0.70;0.70;;;19.30;38.30;;;;;;5015096;28;20108;-71
2022/05/18 06:35:24;;;;;;;0.80;0.80;;;19.30;38.10;;;;;;5013664;28;20033;-72
2022/05/18 06:37:49;;;;;;;0.70;0.70;;;19.40;38.10;;;;;;5014513;28;20038;-71
2022/05/18 06:40:16;;;;;;;1.00;1.00;;;19.50;38.30;;;;;;5015165;28;20033;-71
2022/05/18 06:42:43;;;;;;;1.50;0.80;;;19.60;37.90;;;;;;5014981;28;20037;-71
2022/05/18 06:45:15;;;;;;;0.70;0.70;;;19.70;37.80;;;;;;5013625;28;20424;-71
2022/05/18 06:47:44;;;;;;;0.70;0.70;;;19.80;37.80;;;;;;5014752;28;20058;-71
2022/05/18 06:50:10;;;;;;;0.98;0.73;;;19.80;37.90;;;;;;5014653;28;20038;-71
2022/05/18 06:52:36;;;;;;;1.40;0.60;;;19.80;37.90;;;;;;5014846;28;20456;-72
2022/05/18 06:55:02;;;;;;;0.80;0.80;;;19.80;37.90;;;;;;5014910;28;20041;-71
2022/05/18 06:57:27;;;;;;;0.82;0.82;;;19.80;37.90;;;;;;5013299;28;20503;-71
2022/05/18 06:59:53;;;;;;;0.70;0.70;;;19.90;37.90;;;;;;5014778;28;20061;-71
2022/05/18 07:02:19;;;;;;;0.90;0.90;;;20.00;37.90;;;;;;5014689;28;20030;-71
2022/05/18 07:04:44;;;;;;;0.88;0.80;;;20.00;37.80;;;;;;5013377;28;20080;-71
2022/05/18 07:07:10;;;;;;;0.75;0.75;;;20.10;37.70;;;;;;5014717;28;20520;-72
2022/05/18 07:09:36;;;;;;;1.77;1.00;;;20.10;37.70;;;;;;5014397;28;20042;-71
2022/05/18 07:12:02;;;;;;;0.80;0.80;;;20.10;37.60;;;;;;5014161;28;20069;-72
2022/05/18 07:14:29;;;;;;;0.90;0.75;;;20.20;37.60;;;;;;5012861;28;20041;-71
2022/05/18 07:16:56;;;;;;;1.40;0.88;;;20.20;37.60;;;;;;5013969;28;20045;-71
2022/05/18 07:19:23;;;;;;;0.60;0.60;;;20.30;37.50;;;;;;5013686;28;20026;-72
2022/05/18 07:21:49;;;;;;;1.27;0.85;;;20.40;37.50;;;;;;5013226;28;20049;-70
2022/05/18 07:24:16;;;;;;;0.85;0.85;;;20.50;37.40;;;;;;5012895;28;20053;-71
2022/05/18 07:26:43;;;;;;;0.82;0.70;;;20.60;37.30;;;;;;5013218;28;20033;-71
2022/05/18 07:29:11;;;;;;;0.85;0.60;;;20.60;37.20;;;;;;5014091;28;20049;-72
2022/05/18 07:34:22;;;;;;;0.68;0.68;;;20.70;37.10;;;;;;5014248;28;20121;-71
2022/05/18 07:36:50;;;;;;;0.70;0.70;;;20.70;37.00;;;;;;5014061;28;20026;-72
2022/05/18 07:39:16;;;;;;;0.98;0.80;;;20.80;37.00;;;;;;5013922;28;20032;-71
2022/05/18 07:41:43;;;;;;;0.95;0.60;;;20.80;36.90;;;;;;5014013;28;20192;-72
2022/05/18 07:44:09;;;;;;;2.20;0.70;;;20.80;36.90;;;;;;5013941;28;20088;-72
2022/05/18 07:46:35;;;;;;;1.40;0.88;;;20.80;36.90;;;;;;5014076;28;20445;-72
2022/05/18 07:49:02;;;;;;;0.63;0.63;;;20.80;36.80;;;;;;5014123;28;20038;-71
2022/05/18 07:51:27;;;;;;;0.63;0.60;;;20.80;36.80;;;;;;5014010;28;20048;-71
2022/05/18 07:53:53;;;;;;;0.88;0.70;;;20.80;36.70;;;;;;5013726;28;20053;-71
2022/05/18 07:56:19;;;;;;;0.60;0.60;;;20.80;36.70;;;;;;5013770;28;20069;-71
2022/05/18 07:58:45;;;;;;;0.77;0.77;;;20.90;36.70;;;;;;5014070;28;20029;-71
2022/05/18 08:01:10;;;;;;;1.33;0.80;;;20.90;36.70;;;;;;5013619;28;20062;-72
2022/05/18 08:03:37;;;;;;;0.65;0.65;;;20.90;36.70;;;;;;5013591;28;20022;-72
2022/05/18 08:06:03;;;;;;;0.93;0.93;;;20.90;36.70;;;;;;5012290;28;20034;-70
2022/05/18 08:08:29;;;;;;;0.70;0.70;;;20.90;36.80;;;;;;5013810;28;20038;-71
2022/05/18 08:16:25;;;;;;;2.60;1.13;;;20.80;37.30;;;;;;5017781;28;19952;-72
2022/05/18 08:19:21;;;;;;;2.90;1.20;;;20.80;36.80;;;;;;5017746;28;20061;-72
2022/05/18 08:21:47;;;;;;;1.55;1.08;;;20.80;36.90;;;;;;5016035;28;20026;-71
2022/05/18 08:24:13;;;;;;;0.90;0.90;;;20.70;36.80;;;;;;5017462;28;20046;-71
2022/05/18 08:26:39;;;;;;;0.93;0.90;;;20.70;36.80;;;;;;5017386;28;20109;-71
2022/05/18 08:29:05;;;;;;;1.10;0.90;;;20.70;36.90;;;;;;5017350;28;20474;-72
2022/05/18 08:31:31;;;;;;;1.10;1.00;;;20.70;36.90;;;;;;5016133;28;20026;-71
2022/05/18 08:33:57;;;;;;;0.95;0.93;;;20.70;36.90;;;;;;5016985;28;20053;-71
2022/05/18 08:36:26;;;;;;;0.77;0.77;;;20.90;36.90;;;;;;5016824;28;20142;-71
2022/05/18 08:38:53;;;;;;;1.00;0.90;;;20.90;36.80;;;;;;5016435;28;20429;-71
2022/05/18 08:41:29;;;;;;;1.55;0.65;;;21.00;36.70;;;;;;5015989;28;20026;-71
2022/05/18 08:43:57;;;;;;;0.77;0.77;;;21.00;36.60;;;;;;5015716;28;20037;-70
2022/05/18 08:46:44;;;;;;;0.95;0.80;;;21.10;36.60;;;;;;5016991;28;20057;-71
2022/05/18 08:49:20;;;;;;;0.73;0.70;;;21.20;37.20;;;;;;5017147;28;20046;-71
2022/05/18 08:51:48;;;;;;;0.77;0.73;;;21.20;37.00;;;;;;5016989;28;20404;-72
2022/05/18 08:54:22;;;;;;;1.42;0.98;;;21.10;36.30;;;;;;5015684;28;20479;-71
2022/05/18 08:56:50;;;;;;;1.38;1.10;;;21.20;36.30;;;;;;5016761;28;20030;-72
2022/05/18 08:59:38;;;;;;;1.30;1.17;;;21.10;36.30;;;;;;5016774;28;20037;-71
2022/05/18 09:02:18;;;;;;;1.23;1.13;;;21.00;36.00;;;;;;5016841;28;20022;-70
2022/05/18 09:05:16;;;;;;;1.17;0.80;;;20.80;36.20;;;;;;5015551;28;20058;-72
2022/05/18 09:08:03;;;;;;;0.80;0.80;;;20.80;36.50;;;;;;5014579;28;20042;-71
2022/05/18 09:10:39;;;;;;;1.05;0.90;;;20.70;36.40;;;;;;5015483;28;20026;-72
2022/05/18 09:13:05;;;;;;;2.03;1.10;;;20.70;36.50;;;;;;5016650;28;20030;-71
2022/05/18 09:15:55;;;;;;;1.20;1.10;;;20.80;36.50;;;;;;5015046;28;20065;-71
2022/05/18 09:18:35;;;;;;;1.35;1.10;;;20.90;36.40;;;;;;5016500;28;20491;-73
2022/05/18 09:21:23;;;;;;;0.90;0.90;;;20.90;36.40;;;;;;5016247;28;20040;-72
2022/05/18 09:24:12;;;;;;;1.27;1.10;;;20.90;36.40;;;;;;5016066;28;20054;-73
2022/05/18 09:26:49;;;;;;;0.80;0.80;;;20.90;36.30;;;;;;5016066;28;20052;-70
2022/05/18 09:29:40;;;;;;;1.73;0.90;;;20.90;36.20;;;;;;5015099;28;20047;-71
2022/05/18 09:32:16;;;;;;;1.15;1.05;;;20.90;36.20;;;;;;5016242;28;20033;-71
2022/05/18 09:35:14;;;;;;;0.88;0.88;;;20.90;36.10;;;;;;5015980;28;20026;-71
2022/05/18 09:37:56;;;;;;;0.65;0.65;;;21.00;36.00;;;;;;5016124;28;20037;-72
2022/05/18 09:40:30;;;;;;;1.48;0.80;;;21.00;36.00;;;;;;5014707;28;20087;-71
2022/05/18 09:43:21;;;;;;;0.80;0.80;;;21.20;35.90;;;;;;5015897;28;20350;-72
2022/05/18 09:45:49;;;;;;;0.80;0.80;;;21.20;35.80;;;;;;5013931;28;20081;-72
2022/05/18 09:48:42;;;;;;;1.10;1.00;;;21.30;35.80;;;;;;5015585;28;20465;-71
2022/05/18 09:51:09;;;;;;;0.93;0.93;;;21.20;35.70;;;;;;5017418;28;20132;-71
2022/05/18 09:53:37;;;;;;;1.40;1.30;;;21.20;35.80;;;;;;5015656;28;20365;-71
2022/05/18 09:56:07;;;;;;;1.60;1.38;;;21.10;35.80;;;;;;5015553;28;20120;-71
2022/05/18 09:58:36;;;;;;;2.78;1.27;;;21.00;36.00;;;;;;5014570;28;20026;-67
2022/05/18 10:09:49;;;;;;;0.90;0.90;;;20.70;36.00;;;;;;5052839;28;20115;-67
2022/05/18 10:12:29;;;;;;;0.68;0.68;;;20.60;36.10;;;;;;5053049;28;20031;-67
2022/05/18 10:15:02;;;;;;;0.82;0.70;;;20.60;36.10;;;;;;5021956;28;20042;-68
2022/05/18 10:17:35;;;;;;;0.95;0.95;;;20.50;36.20;;;;;;5015531;28;20465;-66
2022/05/18 10:20:11;;;;;;;1.00;0.90;;;20.40;36.20;;;;;;5015429;28;20440;-67
2022/05/18 10:22:44;;;;;;;0.70;0.70;;;20.40;36.30;;;;;;5015127;28;20357;-67
2022/05/18 10:25:41;;;;;;;0.70;0.70;;;20.40;36.40;;;;;;5015267;28;20046;-67
2022/05/18 10:28:24;;;;;;;0.70;0.70;;;20.50;36.40;;;;;;5015252;28;20030;-68
2022/05/18 10:31:22;;;;;;;0.80;0.80;;;20.50;36.50;;;;;;5014009;28;20030;-67
2022/05/18 10:33:48;;;;;;;0.90;0.90;;;20.60;36.60;;;;;;5013529;28;20088;-68
2022/05/18 10:36:25;;;;;;;1.00;1.00;;;20.60;36.50;;;;;;5014768;28;20026;-67
2022/05/18 10:38:53;;;;;;;1.45;1.35;;;20.60;36.50;;;;;;5015017;28;20456;-68
2022/05/18 10:41:24;;;;;;;2.75;1.30;;;20.70;36.50;;;;;;5013374;28;20030;-68
2022/05/18 10:44:12;;;;;;;1.60;1.33;;;20.70;36.40;;;;;;5015084;28;20037;-68
2022/05/18 10:46:44;;;;;;;1.30;1.10;;;20.60;36.60;;;;;;5013595;28;20033;-68
2022/05/18 10:49:30;;;;;;;1.35;0.93;;;20.60;36.50;;;;;;5014762;28;20037;-67
2022/05/18 10:52:28;;;;;;;1.88;1.00;;;20.60;36.60;;;;;;5013472;28;20053;-67
2022/05/18 10:55:10;;;;;;;1.33;1.02;;;20.50;36.60;;;;;;5014743;28;20030;-67
2022/05/18 10:57:38;;;;;;;1.02;1.00;;;20.40;36.60;;;;;;5014576;28;20029;-67
2022/05/18 11:00:10;;;;;;;0.80;0.80;;;20.40;36.60;;;;;;5014587;28;20112;-66
2022/05/18 11:02:57;;;;;;;1.08;0.80;;;20.40;36.60;;;;;;5013330;28;20021;-67
2022/05/18 11:05:38;;;;;;;1.20;1.10;;;20.40;36.60;;;;;;5013223;28;20022;-67
2022/05/18 11:08:14;;;;;;;1.67;1.58;;;20.30;36.70;;;;;;5014542;28;20096;-66
2022/05/18 11:11:11;;;;;;;3.47;2.17;;;20.40;36.80;;;;;;5013167;28;20029;-66
2022/05/18 11:14:07;;;;;;;3.78;2.00;;;20.50;37.10;;;;;;5014466;28;20022;-67
2022/05/18 11:16:46;;;;;;;2.70;1.77;;;20.50;37.40;;;;;;5013178;28;20026;-68
2022/05/18 11:19:33;;;;;;;2.88;1.90;;;20.50;37.10;;;;;;5014203;28;20460;-68
2022/05/18 11:22:29;;;;;;;2.38;2.00;;;20.50;37.10;;;;;;5014357;28;20076;-68
2022/05/18 11:24:57;;;;;;;3.85;1.85;;;20.50;37.40;;;;;;5013848;28;20089;-66
2022/05/18 11:27:29;;;;;;;3.17;1.52;;;20.50;37.40;;;;;;5013839;28;20120;-67
2022/05/18 11:30:38;;;;;;;2.25;1.30;;;20.50;37.50;;;;;;5014011;28;20033;-66
2022/05/18 11:33:26;;;;;;;1.67;1.33;;;20.50;37.80;;;;;;5012439;28;20038;-67
2022/05/18 11:36:28;;;;;;;2.22;1.20;;;20.50;37.60;;;;;;5013623;28;20427;-68
2022/05/18 11:39:03;;;;;;;2.78;1.15;;;20.50;38.10;;;;;;5011927;28;20042;-67
2022/05/18 11:41:59;;;;;;;0.82;0.82;;;20.50;37.70;;;;;;5013759;28;20022;-67
2022/05/18 11:44:52;;;;;;;2.10;0.88;;;20.50;38.00;;;;;;5013982;28;20033;-67
2022/05/18 11:47:32;;;;;;;2.50;1.08;;;20.50;37.90;;;;;;5014182;28;20038;-67
2022/05/18 11:50:36;;;;;;;0.93;0.88;;;20.60;37.90;;;;;;5013842;28;20388;-67
2022/05/18 11:53:17;;;;;;;0.80;0.80;;;20.60;38.10;;;;;;5012894;28;20057;-68
2022/05/18 11:56:19;;;;;;;0.80;0.80;;;20.60;38.10;;;;;;5014279;28;20372;-67
2022/05/18 11:59:22;;;;;;;2.05;0.80;;;20.70;38.00;;;;;;5012708;28;20053;-67
2022/05/18 12:02:14;;;;;;;0.60;0.60;;;20.80;38.00;;;;;;5012534;28;20036;-68
2022/05/18 12:04:55;;;;;;;0.95;0.75;;;20.80;37.70;;;;;;5012458;28;20431;-67
2022/05/18 12:07:23;;;;;;;0.75;0.75;;;20.80;38.20;;;;;;5013617;28;20029;-67
2022/05/18 12:10:19;;;;;;;0.70;0.70;;;20.80;37.80;;;;;;5013805;28;20029;-66
2022/05/18 12:13:24;;;;;;;2.15;0.80;;;20.80;38.00;;;;;;5013587;28;20032;-67
2022/05/18 12:16:01;;;;;;;0.80;0.80;;;21.00;38.10;;;;;;5013482;28;20048;-67
2022/05/18 12:18:41;;;;;;;1.33;0.80;;;21.10;37.80;;;;;;5013605;28;20030;-67
2022/05/18 12:21:13;;;;;;;0.80;0.80;;;21.20;37.70;;;;;;5012597;28;20034;-66
2022/05/18 12:23:45;;;;;;;0.88;0.70;;;21.30;37.60;;;;;;5012348;28;20030;-67
2022/05/18 12:26:13;;;;;;;0.50;0.50;;;21.40;37.60;;;;;;5012903;28;20666;-67
2022/05/18 12:28:40;;;;;;;0.63;0.63;;;21.40;37.60;;;;;;5012426;28;20465;-67
2022/05/18 12:31:05;;;;;;;0.55;0.55;;;21.40;37.50;;;;;;5012597;28;20029;-67
2022/05/18 12:33:42;;;;;;;0.68;0.60;;;21.40;37.60;;;;;;5013474;28;20030;-67
2022/05/18 12:36:22;;;;;;;1.30;0.77;;;21.50;37.70;;;;;;5013281;28;20034;-67
2022/05/18 12:38:55;;;;;;;0.80;0.80;;;21.50;37.70;;;;;;5012142;28;20112;-67
2022/05/18 12:41:30;;;;;;;0.60;0.60;;;21.50;37.60;;;;;;5012279;28;20033;-67
2022/05/18 12:44:07;;;;;;;0.63;0.63;;;21.60;37.60;;;;;;5013366;28;20457;-67
2022/05/18 12:46:52;;;;;;;0.60;0.57;;;21.60;37.60;;;;;;5013947;28;20044;-67
2022/05/18 12:49:35;;;;;;;0.65;0.65;;;21.60;37.50;;;;;;5012747;28;20026;-67
2022/05/18 12:52:12;;;;;;;0.65;0.65;;;21.70;37.60;;;;;;5013422;28;20034;-67
2022/05/18 12:54:44;;;;;;;0.50;0.50;;;21.80;37.50;;;;;;5013758;28;20026;-67
2022/05/18 12:57:18;;;;;;;1.20;0.50;;;21.80;37.40;;;;;;5014511;28;20112;-68
2022/05/18 12:59:45;;;;;;;0.73;0.73;;;21.80;37.40;;;;;;5017166;28;20053;-67
2022/05/18 13:02:34;;;;;;;0.82;0.80;;;21.90;37.50;;;;;;5017077;28;20033;-68
2022/05/18 13:05:04;;;;;;;0.75;0.60;;;21.90;37.70;;;;;;5015582;28;20026;-66
2022/05/18 13:07:31;;;;;;;0.85;0.60;;;21.90;37.60;;;;;;5015395;28;20077;-68
2022/05/18 13:10:09;;;;;;;0.57;0.57;;;21.90;37.70;;;;;;5016501;28;20033;-67
2022/05/18 13:12:44;;;;;;;0.60;0.60;;;21.90;38.10;;;;;;5016773;28;20030;-67
2022/05/18 13:15:39;;;;;;;0.50;0.50;;;21.90;38.10;;;;;;5015396;28;20026;-68
2022/05/18 13:18:18;;;;;;;0.52;0.52;;;21.90;38.40;;;;;;5015301;28;20145;-67
2022/05/18 13:21:23;;;;;;;1.30;0.77;;;22.00;38.70;;;;;;5015287;28;20375;-68
2022/05/18 13:23:55;;;;;;;0.43;0.43;;;22.10;38.60;;;;;;5019959;28;20488;-67
2022/05/18 13:26:26;;;;;;;0.77;0.40;;;22.20;38.40;;;;;;5016430;28;20037;-66
2022/05/18 13:28:54;;;;;;;0.50;0.50;;;22.30;38.40;;;;;;5015152;28;20030;-66
2022/05/18 13:31:20;;;;;;;0.50;0.50;;;22.40;38.50;;;;;;5016540;28;20029;-67
2022/05/18 13:34:08;;;;;;;2.78;0.50;;;22.40;38.40;;;;;;5016271;28;20105;-66